Kezdőlap
METAR-TAF:

METAR-TAF

Repülőterek :

Newport, Vermont, Amerikai Egyesült Államok

földrajzi szélesség: 44-53-20N, földrajzi hosszúság: 072-13-45W, magasság: 283 m

Jelenlegi meteorológiai megfigyelések

A jelentés 6 perccel ezelõtt készült, 18:56 UTC
Nyugati szél 13 kt széllökések: 22 kt
Hőmérséklet -1°C
Páratartalom 80%
Légköri nyomás 1000 hPa
Látótávolság: 8.0 km
Szakadozott felhőzet 2300 lábon
Borult 2900 lábon
enyhe havazás

METAR: KEFK 151856Z AUTO 28013G22KT 5SM -SN BKN023 OVC029 M01/M04 A2952 RMK AO2 T10111037

Idő: 14:02 (19:02 UTC)


TAF: hiányzik

Meteorológiai megfigyelések és előrejelzések több, mint 4000 repülőtéren (METAR és TAF jelentéseket).

A térképen piros és sárga pontok jelzik az elérhető meteorológiai állomásokat.

Mozgassa az egeret a pont fölött, hogy megjelenjen az állomás neve.

Azután kattintson az időjárási megfigyelések és előrejelzések megtekintéséhez.

A térkép megváltoztatása: kattintson a fekete keresztel jelölt zöld gombra ráközelítéshez, a vonallal jelölt zöld gombra távolításhoz, vagy a zöld nyilakra a szomszédos térképek eléréséhez.


METAR-TAF: